This is the latest recevied weather packets stored in our database for station/object 9W2CEW-1. If no packets are shown the sender has not sent any weather packets the latest 10 day(s).
| Time | Temp. | Humidity | Pressure | Rain* | Wind** | Luminosity | Snow |
|---|---|---|---|---|---|---|---|
| 1788015214 | 39.44° C | 39% | 1005.9 hPa | - | - | - | - |
| 1788014500 | 37.78° C | 40% | 1002.1 hPa | - | - | - | - |
| 1788014313 | 40° C | 37% | 1005.7 hPa | - | - | - | - |
| 1788013414 | 41.11° C | 35% | 1005.5 hPa | - | - | - | - |
| 1788012515 | 40.56° C | 35% | 1005.4 hPa | - | - | - | - |
| 1788012230 | 37.78° C | 42% | 1002.3 hPa | - | - | - | - |
| 1788011615 | 38.33° C | 42% | 1005.1 hPa | - | - | - | - |
| 1788010715 | 38.33° C | 41% | 1004.9 hPa | - | - | - | - |
| 1788009815 | 40° C | 39% | 1004.7 hPa | - | - | - | - |
| 1788009089 | 36.67° C | 42% | 1002.4 hPa | - | - | - | - |
| 1788008915 | 39.44° C | 39% | 1004.4 hPa | - | - | - | - |
| 1788008015 | 41.11° C | 37% | 1004.4 hPa | - | - | - | - |
| 1788007115 | 40° C | 39% | 1004.2 hPa | - | - | - | - |
| 1788006544 | 37.78° C | 40% | 1002.2 hPa | - | - | - | - |
| 1788006214 | 38.89° C | 41% | 1004 hPa | - | - | - | - |
| 1788005314 | 37.78° C | 42% | 1003.7 hPa | - | - | - | - |
| 1788004752 | 36.67° C | 41% | 1002.9 hPa | - | - | - | - |
| 1788004414 | 38.89° C | 40% | 1003.5 hPa | - | - | - | - |
| 1788003514 | 38.89° C | 41% | 1003.3 hPa | - | - | - | - |
| 1788002699 | 38.33° C | 39% | 1003.1 hPa | - | - | - | - |
| 1788002614 | 37.78° C | 43% | 1003.2 hPa | - | - | - | - |
| 1788001715 | 36.67° C | 45% | 1002.9 hPa | - | - | - | - |
| 1788000814 | 36.11° C | 46% | 1002.4 hPa | - | - | - | - |
| 1787999914 | 36.67° C | 46% | 1002.1 hPa | - | - | - | - |
| 1787999014 | 37.78° C | 42% | 1002.1 hPa | - | - | - | - |
* Rain since midnight (hover to see other rain measurements)
** Current wind speed in m/s (hover to see current wind gust speed)